Time;durP1;ratioP1;P1;durP2;ratioP2;P2;SDS_P1;SDS_P2;PMS_P1;PMS_P2;Temp;Humidity;BMP_temperature;BMP_pressure;BME280_temperature;BME280_humidity;BME280_pressure;Samples;Min_cycle;Max_cycle;Signal;HPM_P1;HPM_P2
2022/10/07 00:01:19;;;;;;;12.57;3.10;;;9.40;97.60;;;9.24;100.00;100286.22;5057277;27;129830;-70
2022/10/07 00:03:47;;;;;;;14.27;3.38;;;9.50;97.40;;;9.19;100.00;100278.09;5057511;27;125476;-69
2022/10/07 00:06:19;;;;;;;8.15;2.63;;;9.40;99.90;;;9.15;100.00;100287.91;5042446;27;125226;-70
2022/10/07 00:08:51;;;;;;;14.55;3.13;;;9.40;99.90;;;9.18;100.00;100279.22;5039716;27;130437;-73
2022/10/07 00:11:22;;;;;;;10.95;2.85;;;9.40;99.90;;;9.14;100.00;100283.56;5037454;27;129796;-71
2022/10/07 00:13:54;;;;;;;10.95;3.30;;;9.40;99.90;;;9.16;100.00;100284.09;5037203;27;126189;-69
2022/10/07 00:16:26;;;;;;;9.85;2.88;;;9.40;99.90;;;9.16;100.00;100282.22;5037030;27;125816;-69
2022/10/07 00:18:57;;;;;;;16.15;3.38;;;9.40;99.90;;;9.18;100.00;100282.72;5037537;27;130407;-70
2022/10/07 00:21:28;;;;;;;12.52;3.17;;;9.40;99.90;;;9.16;100.00;100273.25;5022140;27;130917;-72
2022/10/07 00:23:58;;;;;;;10.10;2.40;;;9.30;99.90;;;9.12;100.00;100283.84;5036872;27;126581;-71
2022/10/07 00:26:31;;;;;;;10.00;3.38;;;9.40;99.90;;;9.12;100.00;100283.06;5036746;27;125837;-71
2022/10/07 00:29:00;;;;;;;11.05;2.53;;;9.40;99.90;;;9.11;100.00;100284.94;5018325;27;129627;-70
2022/10/07 00:31:31;;;;;;;12.35;3.60;;;9.40;99.90;;;9.11;100.00;100292.25;5005004;27;129381;-71
2022/10/07 00:34:00;;;;;;;8.57;3.25;;;9.40;99.90;;;9.11;100.00;100282.22;5018435;27;125522;-71
2022/10/07 00:36:31;;;;;;;13.15;3.15;;;9.50;99.90;;;9.15;100.00;100282.50;5022362;27;123965;-73
2022/10/07 00:39:04;;;;;;;11.70;3.17;;;9.40;99.90;;;9.12;100.00;100283.06;5036548;27;130182;-69
2022/10/07 00:41:36;;;;;;;16.05;4.15;;;9.40;99.90;;;9.11;100.00;100276.81;5018492;27;129546;-71
2022/10/07 00:44:40;;;;;;;13.10;2.97;;;9.40;99.90;;;9.11;100.00;100287.63;5036238;27;126638;-73
2022/10/07 00:47:18;;;;;;;11.63;2.95;;;9.40;99.90;;;9.09;100.00;100283.63;5036741;27;126936;-70
2022/10/07 00:49:54;;;;;;;12.60;3.05;;;9.30;99.90;;;9.07;100.00;100291.19;5021602;27;129220;-70
2022/10/07 00:52:26;;;;;;;12.70;3.28;;;9.30;99.90;;;9.04;100.00;100283.63;5036367;27;129533;-71
2022/10/07 00:54:57;;;;;;;13.30;3.67;;;9.20;99.90;;;9.03;100.00;100282.03;5021334;27;125406;-71
2022/10/07 00:57:30;;;;;;;13.25;2.97;;;9.20;99.90;;;8.97;100.00;100287.47;5004893;27;125154;-70
2022/10/07 01:00:01;;;;;;;13.15;2.85;;;9.20;99.90;;;8.97;100.00;100290.19;5021457;27;129753;-70
2022/10/07 01:02:30;;;;;;;14.30;3.10;;;9.20;99.90;;;8.98;100.00;100277.47;5036509;27;130280;-71
2022/10/07 01:05:02;;;;;;;11.57;3.45;;;9.20;99.90;;;8.95;100.00;100295.06;5018478;27;126251;-70
2022/10/07 01:07:32;;;;;;;12.52;2.88;;;9.10;99.90;;;8.92;100.00;100294.84;5034854;27;125736;-72
2022/10/07 01:10:03;;;;;;;17.05;3.45;;;9.10;99.90;;;8.93;100.00;100299.97;5020901;27;129523;-71
2022/10/07 01:12:48;;;;;;;12.93;3.53;;;9.10;99.90;;;8.88;100.00;100305.44;5036204;27;129379;-70
2022/10/07 01:15:31;;;;;;;11.82;3.40;;;9.10;99.90;;;8.84;100.00;100312.47;5022357;27;102780;-70
2022/10/07 01:18:13;;;;;;;11.43;2.85;;;9.10;99.90;;;8.79;100.00;100317.94;5021326;27;124653;-71
2022/10/07 01:20:52;;;;;;;11.15;3.55;;;9.10;99.90;;;8.81;100.00;100315.75;5036333;27;129631;-70
2022/10/07 01:23:45;;;;;;;10.88;2.80;;;9.00;99.90;;;8.78;100.00;100316.28;5035889;27;129164;-70
2022/10/07 01:26:48;;;;;;;13.05;2.92;;;9.00;99.90;;;8.76;100.00;100323.91;5021434;27;125528;-70
2022/10/07 01:29:22;;;;;;;15.63;3.45;;;9.00;99.90;;;8.73;100.00;100335.28;5022085;27;125389;-70
2022/10/07 01:31:59;;;;;;;13.57;3.35;;;8.90;99.90;;;8.70;100.00;100331.22;5039416;27;131092;-70
2022/10/07 01:34:29;;;;;;;11.98;3.20;;;8.90;99.90;;;8.68;100.00;100327.16;5021541;27;129709;-70
2022/10/07 01:37:00;;;;;;;12.48;3.20;;;8.90;99.90;;;8.63;100.00;100319.88;5038885;27;126162;-72
2022/10/07 01:39:36;;;;;;;11.52;2.92;;;8.80;99.90;;;8.62;100.00;100319.09;5024517;27;126094;-71
2022/10/07 01:42:07;;;;;;;13.90;3.13;;;8.80;99.90;;;8.59;100.00;100330.47;5024153;27;129550;-70
2022/10/07 01:44:39;;;;;;;11.30;3.30;;;8.80;99.90;;;8.59;100.00;100335.88;5020978;27;129508;-73
2022/10/07 01:47:07;;;;;;;13.30;4.13;;;8.70;99.90;;;8.53;100.00;100336.97;5039276;27;126047;-70
2022/10/07 01:49:36;;;;;;;12.07;3.30;;;8.80;99.90;;;8.58;100.00;100331.53;5024293;27;125262;-70
2022/10/07 01:52:30;;;;;;;15.00;3.38;;;8.80;99.90;;;8.54;100.00;100332.38;5020749;27;130406;-70
2022/10/07 01:55:42;;;;;;;9.88;3.22;;;8.80;99.90;;;8.54;100.00;100332.38;5021207;27;129721;-71
2022/10/07 01:58:39;;;;;;;11.85;3.40;;;8.80;99.90;;;8.52;100.00;100335.34;5004199;27;125412;-70
2022/10/07 02:01:17;;;;;;;10.95;3.30;;;8.70;99.90;;;8.51;100.00;100325.63;5037847;27;125324;-72
2022/10/07 02:04:16;;;;;;;10.77;2.90;;;8.70;99.90;;;8.51;100.00;100328.34;5020255;27;129865;-70
2022/10/07 02:06:57;;;;;;;10.85;3.05;;;8.70;99.90;;;8.50;100.00;100334.81;5040670;27;129707;-70
2022/10/07 02:09:33;;;;;;;11.43;3.92;;;8.60;99.90;;;8.47;100.00;100338.09;5039055;27;127139;-71
2022/10/07 02:12:09;;;;;;;14.93;3.80;;;8.60;99.90;;;8.49;100.00;100335.91;5024060;27;125429;-71
2022/10/07 02:14:45;;;;;;;10.65;3.08;;;8.70;99.90;;;8.45;100.00;100330.25;5038641;27;129927;-70
2022/10/07 02:17:19;;;;;;;11.35;3.28;;;8.70;99.90;;;8.49;100.00;100341.31;5040930;27;129061;-71
2022/10/07 02:19:54;;;;;;;9.88;3.03;;;8.70;99.90;;;8.45;100.00;100329.44;5024314;27;125586;-72
2022/10/07 02:22:27;;;;;;;11.95;3.95;;;8.60;99.90;;;8.44;100.00;100338.63;5020882;27;125536;-72
2022/10/07 02:24:57;;;;;;;14.10;3.40;;;8.60;99.90;;;8.41;100.00;100331.03;5023694;27;129777;-70
2022/10/07 02:27:33;;;;;;;15.48;3.65;;;8.50;99.90;;;8.39;100.00;100335.94;5006647;27;129196;-70
2022/10/07 02:30:08;;;;;;;12.90;3.38;;;8.50;99.90;;;8.40;100.00;100343.78;5023143;27;126333;-71
2022/10/07 02:32:39;;;;;;;11.43;3.08;;;8.60;99.90;;;8.37;100.00;100338.13;5007045;27;124968;-70
2022/10/07 02:35:18;;;;;;;12.35;4.13;;;8.50;99.90;;;8.35;100.00;100334.84;5020227;27;129871;-71
2022/10/07 02:37:51;;;;;;;18.63;4.53;;;8.50;99.90;;;8.33;100.00;100347.84;5020394;27;130341;-70
2022/10/07 02:40:22;;;;;;;9.05;3.25;;;8.50;99.90;;;8.31;100.00;100344.63;5019834;27;125693;-70
2022/10/07 02:42:59;;;;;;;13.13;3.45;;;8.40;99.90;;;8.27;100.00;100344.34;5006663;27;125320;-70
2022/10/07 02:45:38;;;;;;;13.05;3.35;;;8.50;99.90;;;8.30;100.00;100338.38;5019951;27;129979;-70
2022/10/07 02:48:18;;;;;;;12.48;3.70;;;8.50;99.90;;;8.31;100.00;100341.91;5032348;27;130105;-70
2022/10/07 02:50:52;;;;;;;12.43;3.15;;;8.50;99.90;;;8.26;100.00;100338.13;5043504;27;125886;-70
2022/10/07 02:53:22;;;;;;;13.02;4.18;;;8.60;99.90;;;8.27;100.00;100333.53;5026590;27;125622;-69
2022/10/07 02:55:54;;;;;;;12.38;3.72;;;8.50;99.90;;;8.32;100.00;100344.34;5042625;27;129937;-71
2022/10/07 02:58:25;;;;;;;15.30;3.65;;;8.50;99.90;;;8.30;100.00;100337.59;5026209;27;128887;-70
2022/10/07 03:01:01;;;;;;;12.88;3.90;;;8.50;99.90;;;8.30;100.00;100332.19;5043232;27;125778;-70
2022/10/07 03:03:30;;;;;;;13.60;3.60;;;8.40;99.90;;;8.24;100.00;100344.88;5056648;27;125267;-70
2022/10/07 03:06:03;;;;;;;17.88;4.15;;;8.40;99.90;;;8.20;100.00;100333.81;5042858;27;129476;-70
2022/10/07 03:08:32;;;;;;;10.32;3.45;;;8.30;99.90;;;8.21;100.00;100338.16;5039846;27;129281;-71
2022/10/07 03:11:01;;;;;;;11.68;3.65;;;8.20;99.90;;;8.18;100.00;100341.41;5060201;27;125242;-70
2022/10/07 03:13:31;;;;;;;12.73;3.13;;;8.10;99.90;;;8.09;100.00;100337.66;5027185;27;124679;-69
2022/10/07 03:16:04;;;;;;;19.23;4.13;;;8.00;99.90;;;8.07;100.00;100342.50;5042987;27;129707;-70
2022/10/07 03:18:33;;;;;;;12.05;4.00;;;8.20;99.90;;;8.09;100.00;100348.47;5059743;27;129254;-70
2022/10/07 03:21:25;;;;;;;10.40;3.63;;;8.30;99.90;;;8.08;100.00;100341.44;5060563;27;126508;-70
2022/10/07 03:23:56;;;;;;;13.75;3.75;;;8.20;99.90;;;8.06;100.00;100349.00;5060105;27;125932;-70
2022/10/07 03:26:29;;;;;;;20.30;4.03;;;8.20;99.90;;;8.07;100.00;100340.63;5042444;27;130233;-70
2022/10/07 03:29:00;;;;;;;11.77;3.47;;;8.30;99.90;;;8.06;100.00;100359.81;5043014;27;129121;-71
2022/10/07 03:31:30;;;;;;;14.95;3.38;;;8.30;99.90;;;8.06;100.00;100354.41;5039671;27;125688;-70
2022/10/07 03:34:00;;;;;;;12.55;4.25;;;8.30;99.90;;;8.09;100.00;100356.56;5042258;27;125225;-71
2022/10/07 03:36:29;;;;;;;17.85;4.47;;;8.40;99.90;;;8.06;100.00;100354.41;5057451;27;130059;-71
2022/10/07 03:38:58;;;;;;;12.73;3.60;;;8.40;99.90;;;8.05;100.00;100356.28;5051106;27;129823;-71
2022/10/07 03:41:27;;;;;;;12.57;4.13;;;8.40;99.90;;;8.03;100.00;100361.16;5057583;27;126599;-70
2022/10/07 03:43:59;;;;;;;15.32;3.92;;;8.30;99.90;;;7.99;100.00;100359.28;5041999;27;124883;-70
2022/10/07 03:46:30;;;;;;;14.30;4.15;;;8.20;99.90;;;8.00;100.00;100363.63;5038311;27;129944;-71
2022/10/07 03:48:58;;;;;;;11.07;3.28;;;8.20;99.90;;;7.99;100.00;100364.69;5057325;27;129877;-70
2022/10/07 03:51:28;;;;;;;13.85;4.53;;;8.20;99.90;;;7.95;100.00;100359.03;5055799;27;125932;-70
2022/10/07 03:53:58;;;;;;;17.50;4.97;;;8.10;99.90;;;7.92;100.00;100365.78;5042020;27;124885;-70
2022/10/07 03:56:31;;;;;;;12.18;3.90;;;8.10;99.90;;;7.92;100.00;100359.56;5036786;27;132394;-71
2022/10/07 03:59:02;;;;;;;15.52;4.18;;;8.00;99.90;;;7.91;100.00;100366.06;5050296;27;130063;-70
2022/10/07 04:01:33;;;;;;;16.92;4.43;;;8.00;99.90;;;7.87;100.00;100354.19;5042044;27;125209;-72
2022/10/07 04:04:02;;;;;;;11.60;4.25;;;8.00;99.90;;;7.81;100.00;100366.09;5042246;27;125277;-71
2022/10/07 04:06:37;;;;;;;10.65;4.30;;;8.00;99.90;;;7.80;100.00;100357.13;5041216;27;129588;-70
2022/10/07 04:09:12;;;;;;;15.60;4.20;;;8.00;99.90;;;7.77;100.00;100360.38;5036642;27;130098;-70
2022/10/07 04:11:42;;;;;;;13.75;4.30;;;8.00;99.90;;;7.80;100.00;100354.44;5038732;27;126621;-72
2022/10/07 04:14:11;;;;;;;16.83;4.72;;;8.00;99.90;;;7.78;100.00;100353.91;5039197;27;126525;-70
2022/10/07 04:16:42;;;;;;;13.80;4.40;;;8.00;99.90;;;7.79;100.00;100358.25;5038856;27;130729;-70
2022/10/07 04:19:15;;;;;;;15.32;4.80;;;7.90;99.90;;;7.80;100.00;100356.34;5038903;27;129722;-71
2022/10/07 04:21:44;;;;;;;21.05;5.57;;;7.90;99.90;;;7.77;100.00;100357.69;5039164;27;125921;-70
2022/10/07 04:24:12;;;;;;;16.42;5.00;;;7.90;99.90;;;7.79;100.00;100355.53;5042018;27;125354;-70
2022/10/07 04:26:42;;;;;;;16.05;4.70;;;7.90;99.90;;;7.77;100.00;100360.38;5042181;27;129500;-70
2022/10/07 04:29:11;;;;;;;13.43;4.78;;;8.00;99.90;;;7.79;100.00;100355.53;5039339;27;129796;-71
2022/10/07 04:31:40;;;;;;;19.25;5.63;;;8.00;99.90;;;7.80;100.00;100359.84;5041983;27;125938;-71
2022/10/07 04:34:10;;;;;;;17.17;5.25;;;8.00;99.90;;;7.81;100.00;100358.78;5038818;27;125670;-70
2022/10/07 04:36:42;;;;;;;19.02;4.85;;;7.90;99.90;;;7.82;100.00;100365.81;5041454;27;130073;-70
2022/10/07 04:39:15;;;;;;;12.75;4.68;;;7.90;99.90;;;7.89;100.00;100369.03;5038698;27;129446;-70
2022/10/07 04:41:57;;;;;;;13.57;5.38;;;8.10;99.90;;;7.99;100.00;100364.69;5053403;27;125375;-70
2022/10/07 04:44:31;;;;;;;17.80;5.75;;;8.00;99.90;;;8.04;100.00;100367.38;5059232;27;125673;-70
2022/10/07 04:47:06;;;;;;;17.67;5.28;;;8.10;99.90;;;8.05;100.00;100366.31;5025108;27;129000;-70
2022/10/07 04:49:38;;;;;;;14.75;4.88;;;8.10;99.90;;;8.09;100.00;100364.69;5038750;27;130153;-69
2022/10/07 04:52:09;;;;;;;12.75;5.43;;;8.10;99.90;;;8.20;100.00;100362.78;5042078;27;125712;-69
2022/10/07 04:54:40;;;;;;;14.20;4.60;;;8.20;99.90;;;8.23;100.00;100360.31;5039086;27;125503;-69
2022/10/07 04:57:12;;;;;;;10.05;4.70;;;8.30;99.90;;;8.36;100.00;100368.94;5041593;27;129771;-69
2022/10/07 04:59:41;;;;;;;18.67;4.68;;;8.40;99.90;;;8.42;100.00;100363.22;5056868;27;129498;-70
2022/10/07 05:02:09;;;;;;;18.33;5.07;;;8.40;99.90;;;8.51;100.00;100370.78;5057502;27;126931;-73
2022/10/07 05:04:39;;;;;;;20.25;5.22;;;8.50;99.90;;;8.55;100.00;100369.16;5042278;27;125980;-69
2022/10/07 05:07:09;;;;;;;13.27;4.72;;;8.50;99.90;;;8.62;100.00;100361.56;5041937;27;130097;-68
2022/10/07 05:09:38;;;;;;;13.38;4.80;;;8.60;99.90;;;8.68;100.00;100379.41;5058719;27;130244;-69
2022/10/07 05:12:07;;;;;;;15.38;4.72;;;8.70;99.90;;;8.78;100.00;100379.34;5042036;27;125555;-69
2022/10/07 05:14:36;;;;;;;17.25;5.53;;;8.70;99.90;;;8.79;100.00;100382.88;5041960;27;125543;-70
2022/10/07 05:17:06;;;;;;;17.17;4.63;;;8.70;99.90;;;8.82;100.00;100387.75;5042110;27;130147;-70
2022/10/07 05:19:37;;;;;;;15.50;5.00;;;8.80;99.90;;;8.92;100.00;100393.09;5045307;27;129438;-70
2022/10/07 05:22:06;;;;;;;13.20;4.72;;;8.90;99.90;;;9.05;100.00;100393.56;5043477;27;125643;-71
2022/10/07 05:24:35;;;;;;;14.25;5.07;;;8.90;99.90;;;9.02;100.00;100389.50;5045169;27;124211;-71
2022/10/07 05:27:04;;;;;;;17.95;5.35;;;9.00;99.90;;;9.12;100.00;100380.53;5058148;27;130038;-68
2022/10/07 05:29:33;;;;;;;13.52;5.05;;;9.00;99.90;;;9.21;100.00;100384.28;5044233;27;129137;-68
2022/10/07 05:32:01;;;;;;;14.90;4.72;;;9.00;99.90;;;9.33;100.00;100392.88;5060047;27;125620;-70
2022/10/07 05:34:30;;;;;;;14.63;5.32;;;9.10;99.90;;;9.33;100.00;100387.44;5062177;27;126136;-68
2022/10/07 05:37:00;;;;;;;17.35;4.65;;;9.20;99.90;;;9.37;100.00;100392.31;5041468;27;129971;-68
2022/10/07 05:39:28;;;;;;;14.25;4.47;;;9.20;99.90;;;9.47;100.00;100393.06;5060409;27;131243;-70
2022/10/07 05:42:03;;;;;;;12.98;4.40;;;9.20;99.90;;;9.41;100.00;100398.75;5041408;27;127757;-69
2022/10/07 05:44:38;;;;;;;15.98;4.47;;;9.20;99.90;;;9.38;100.00;100400.16;5045178;27;125525;-69
2022/10/07 05:47:07;;;;;;;15.15;5.03;;;9.10;99.90;;;9.57;100.00;100403.00;5044631;27;130602;-69
2022/10/07 05:49:36;;;;;;;14.40;4.03;;;9.20;99.90;;;9.70;100.00;100396.13;5041274;27;129537;-70
2022/10/07 05:52:06;;;;;;;20.65;5.20;;;9.30;99.90;;;9.78;100.00;100413.66;5044185;27;126073;-69
2022/10/07 05:54:36;;;;;;;16.65;4.30;;;9.30;99.90;;;9.78;100.00;100402.81;5058482;27;126868;-71
2022/10/07 05:57:05;;;;;;;11.95;3.97;;;9.40;99.90;;;9.84;100.00;100407.13;5044391;27;129926;-69
2022/10/07 05:59:35;;;;;;;15.02;4.32;;;9.50;99.90;;;10.07;100.00;100410.97;5041282;27;129462;-69
2022/10/07 06:02:05;;;;;;;12.57;4.30;;;9.60;99.90;;;10.13;100.00;100415.25;5061301;27;124600;-71
2022/10/07 06:04:36;;;;;;;12.25;3.90;;;9.80;99.90;;;10.24;100.00;100415.97;5040753;27;125274;-71
2022/10/07 06:07:05;;;;;;;21.00;9.45;;;9.80;99.90;;;10.26;100.00;100422.72;5057947;27;130551;-71
2022/10/07 06:15:12;;;;;;;15.63;5.43;;;9.90;99.90;;;10.42;100.00;100425.31;5043504;27;125055;-69
2022/10/07 06:17:45;;;;;;;22.15;10.90;;;9.90;99.90;;;10.66;100.00;100421.78;5037054;27;130868;-69
2022/10/07 06:20:16;;;;;;;16.63;6.22;;;10.00;99.90;;;10.78;100.00;100420.28;5040845;27;129398;-69
2022/10/07 06:22:47;;;;;;;19.42;4.38;;;10.10;99.90;;;10.90;100.00;100421.78;5024129;27;125287;-69
2022/10/07 06:25:17;;;;;;;13.70;4.43;;;10.30;99.90;;;11.21;100.00;100429.53;5023931;27;125366;-68
2022/10/07 06:27:48;;;;;;;18.98;5.90;;;10.40;98.30;;;11.44;100.00;100431.38;5020537;27;130594;-69
2022/10/07 06:30:16;;;;;;;14.18;4.07;;;10.60;89.90;;;11.29;100.00;100434.28;5038678;27;129576;-71
2022/10/07 06:32:45;;;;;;;17.30;4.05;;;10.60;89.90;;;11.13;100.00;100431.00;5020484;27;127141;-69
2022/10/07 06:35:14;;;;;;;14.98;5.95;;;10.40;89.70;;;11.20;100.00;100439.56;5023961;27;125221;-69
2022/10/07 06:37:42;;;;;;;15.38;4.00;;;10.50;93.80;;;11.45;100.00;100435.72;5028779;27;131127;-70
2022/10/07 06:40:14;;;;;;;14.00;3.70;;;10.70;90.00;;;11.45;100.00;100440.31;5043811;27;129134;-70
2022/10/07 06:42:42;;;;;;;16.85;4.32;;;10.70;68.90;;;11.40;100.00;100441.19;5040230;27;126901;-69
2022/10/07 06:45:20;;;;;;;12.60;3.58;;;10.80;78.50;;;11.52;100.00;100444.28;5058519;27;126365;-71
2022/10/07 06:47:52;;;;;;;14.32;3.38;;;10.80;55.80;;;11.44;100.00;100447.66;5043515;27;129103;-71
2022/10/07 06:50:20;;;;;;;18.30;4.20;;;10.70;60.00;;;11.56;100.00;100449.97;5040313;27;129259;-72
2022/10/07 06:52:49;;;;;;;10.88;3.35;;;10.80;54.90;;;11.47;100.00;100449.00;5058836;27;125694;-73
2022/10/07 06:55:19;;;;;;;14.98;4.10;;;10.80;51.60;;;11.36;100.00;100450.22;5040306;27;125534;-70
2022/10/07 06:57:48;;;;;;;15.88;4.03;;;10.80;52.30;;;11.43;100.00;100447.97;5043756;27;129686;-70
2022/10/07 07:00:20;;;;;;;14.07;3.90;;;10.70;47.40;;;11.62;100.00;100448.75;5057427;27;129316;-71
2022/10/07 07:02:49;;;;;;;15.88;4.10;;;10.90;46.70;;;11.65;100.00;100441.94;5026681;27;124943;-71
2022/10/07 07:05:18;;;;;;;15.40;3.75;;;10.90;40.10;;;11.75;100.00;100435.50;5058034;27;126496;-71
2022/10/07 07:07:48;;;;;;;16.15;3.80;;;11.00;29.60;;;11.91;100.00;100436.09;5039517;27;130008;-71
2022/10/07 07:10:19;;;;;;;16.17;4.18;;;11.10;32.80;;;11.97;98.98;100445.81;5043249;27;129158;-71
2022/10/07 07:12:53;;;;;;;12.48;4.05;;;11.20;23.70;;;12.00;98.33;100440.56;5039563;27;125622;-70
2022/10/07 07:15:22;;;;;;;11.90;3.67;;;11.30;19.70;;;12.13;97.09;100446.34;5057195;27;126065;-72
2022/10/07 07:17:51;;;;;;;17.13;4.07;;;11.40;13.50;;;12.16;96.82;100441.13;5042707;27;130015;-71
2022/10/07 07:20:20;;;;;;;14.25;3.88;;;11.40;13.50;;;12.27;97.02;100446.38;5056083;27;131613;-70
2022/10/07 07:22:49;;;;;;;14.98;4.80;;;11.50;9.90;;;12.46;95.57;100449.84;5043298;27;125312;-71
2022/10/07 07:25:19;;;;;;;13.20;4.20;;;11.50;6.10;;;12.59;94.78;100449.06;5038760;27;127020;-70
2022/10/07 07:27:48;;;;;;;18.00;4.10;;;11.70;1.60;;;12.69;93.80;100448.03;5041464;27;129817;-71
2022/10/07 07:30:20;;;;;;;13.18;4.15;;;11.80;1.00;;;12.83;92.26;100461.66;5024967;27;129211;-75
2022/10/07 07:32:50;;;;;;;14.60;4.10;;;11.80;1.00;;;12.93;92.91;100458.75;5056186;27;126303;-71
2022/10/07 07:35:18;;;;;;;14.50;4.03;;;11.90;1.00;;;12.75;92.00;100465.09;5043473;27;125387;-73
2022/10/07 07:37:47;;;;;;;12.48;4.15;;;11.80;1.00;;;12.83;91.65;100464.38;5026057;27;129620;-72
2022/10/07 07:40:16;;;;;;;17.95;4.20;;;11.90;1.00;;;12.86;92.20;100458.31;5039570;27;130322;-71
2022/10/07 07:42:48;;;;;;;13.98;3.70;;;12.00;1.00;;;13.00;90.27;100457.53;5042854;27;126268;-71
2022/10/07 07:45:18;;;;;;;13.80;3.90;;;12.10;1.00;;;13.08;90.48;100464.97;5039605;27;125895;-70
2022/10/07 07:47:48;;;;;;;18.08;4.57;;;12.20;1.00;;;13.46;88.95;100459.28;5042278;27;129603;-71
2022/10/07 07:50:19;;;;;;;11.02;4.20;;;12.40;1.00;;;13.64;86.98;100466.47;5039589;27;129801;-71
2022/10/07 07:52:48;;;;;;;17.38;4.00;;;12.50;1.00;;;13.57;87.15;100466.13;5042346;27;124920;-71
2022/10/07 07:55:17;;;;;;;11.18;3.63;;;12.40;1.00;;;13.59;87.52;100461.16;5059595;27;125262;-73
2022/10/07 07:57:48;;;;;;;15.70;4.03;;;12.50;1.00;;;13.72;87.18;100461.41;5039247;27;130178;-71
2022/10/07 08:00:17;;;;;;;16.17;3.58;;;12.60;1.00;;;14.00;86.24;100462.91;5059403;27;129377;-70
2022/10/07 08:02:56;;;;;;;12.45;3.58;;;12.90;1.00;;;14.01;85.73;100463.72;5042079;27;125538;-72
2022/10/07 08:05:25;;;;;;;10.45;2.90;;;12.80;1.00;;;13.95;86.09;100470.44;5040232;27;125895;-71
2022/10/07 08:07:58;;;;;;;17.10;3.88;;;12.90;1.00;;;14.26;84.80;100470.47;5055889;27;130228;-71
2022/10/07 08:10:28;;;;;;;14.20;3.35;;;13.10;1.00;;;14.31;82.87;100467.59;5055768;27;129373;-71
2022/10/07 08:12:58;;;;;;;17.98;3.20;;;13.00;1.00;;;14.46;84.15;100462.84;5056068;27;125683;-70
2022/10/07 08:15:27;;;;;;;10.43;3.00;;;13.20;1.00;;;14.52;82.56;100467.88;5056328;27;125692;-70
2022/10/07 08:17:56;;;;;;;24.52;4.93;;;13.20;1.00;;;14.46;81.93;100465.56;5057207;27;129818;-70
2022/10/07 08:20:24;;;;;;;15.65;3.55;;;13.00;1.00;;;14.55;81.96;100471.88;5055953;27;129528;-71
2022/10/07 08:22:53;;;;;;;11.93;3.65;;;13.10;1.00;;;14.53;82.44;100469.47;5038583;27;126363;-68
2022/10/07 08:25:25;;;;;;;15.18;3.63;;;13.20;1.00;;;14.62;81.08;100477.72;5041878;27;126813;-71
2022/10/07 08:27:54;;;;;;;14.52;3.25;;;13.10;1.00;;;14.45;82.30;100472.16;5024490;27;129577;-70
2022/10/07 08:30:24;;;;;;;12.93;3.40;;;13.20;1.00;;;14.43;82.91;100468.94;5041957;27;129017;-71
2022/10/07 08:32:52;;;;;;;15.27;3.50;;;13.20;1.00;;;14.46;82.69;100484.69;5041448;27;125291;-72
2022/10/07 08:35:21;;;;;;;14.93;3.38;;;13.20;1.00;;;14.62;81.31;100471.47;5057196;27;125701;-70
2022/10/07 08:37:50;;;;;;;11.60;2.92;;;13.30;1.00;;;14.69;81.48;100483.56;5059235;27;129404;-72
2022/10/07 08:40:19;;;;;;;12.63;3.08;;;13.50;1.00;;;14.67;81.12;100480.31;5057436;27;129734;-72
2022/10/07 08:42:47;;;;;;;14.27;3.10;;;13.50;1.00;;;14.77;81.88;100483.91;5057046;27;125709;-71
2022/10/07 08:45:28;;;;;;;9.70;3.95;;;13.70;1.00;;;14.83;79.32;100485.38;5041783;27;125068;-75
2022/10/07 08:48:03;;;;;;;11.13;2.97;;;13.50;1.00;;;14.56;79.24;100478.97;5056499;27;130433;-73
2022/10/07 08:50:42;;;;;;;10.80;3.28;;;13.40;1.00;;;14.51;80.06;100481.84;5056699;27;130053;-69
2022/10/07 08:53:19;;;;;;;12.75;3.03;;;13.50;1.00;;;14.66;78.91;100473.25;5056720;27;125998;-69
2022/10/07 08:55:53;;;;;;;14.25;3.75;;;13.40;1.00;;;14.60;78.86;100469.06;5056929;27;125668;-72
2022/10/07 08:58:43;;;;;;;14.38;2.78;;;13.40;1.00;;;14.73;79.81;100473.59;5056660;27;130517;-70
2022/10/07 09:01:28;;;;;;;15.73;3.33;;;13.70;1.00;;;15.06;78.11;100475.16;5056715;27;129259;-72
2022/10/07 09:04:11;;;;;;;16.58;3.58;;;13.90;1.00;;;15.31;75.61;100481.78;5056799;27;126192;-69
2022/10/07 09:06:45;;;;;;;10.77;2.70;;;13.90;1.00;;;15.66;74.99;100470.91;5059551;27;125507;-69
2022/10/07 09:09:19;;;;;;;17.02;3.42;;;14.30;1.00;;;15.87;74.57;100473.78;5056638;27;130972;-71
2022/10/07 09:11:50;;;;;;;12.65;3.83;;;14.40;1.00;;;16.08;73.67;100475.84;5056550;27;129545;-70
2022/10/07 09:14:28;;;;;;;13.50;3.42;;;14.70;1.00;;;16.63;70.78;100479.75;5056322;27;127543;-70
2022/10/07 09:17:03;;;;;;;15.25;2.95;;;15.10;1.00;;;16.74;67.90;100475.50;5041374;27;126603;-70
2022/10/07 09:19:40;;;;;;;12.38;3.13;;;15.00;1.00;;;16.71;67.72;100470.69;5036442;27;130967;-71
2022/10/07 09:22:18;;;;;;;9.13;3.10;;;15.10;1.00;;;16.51;68.08;100478.50;5038218;27;129041;-72
2022/10/07 09:24:48;;;;;;;12.50;2.80;;;15.20;1.00;;;16.36;67.48;100476.28;5036397;27;126818;-71
2022/10/07 09:27:21;;;;;;;11.70;3.15;;;15.00;1.00;;;16.14;68.65;100478.13;5036314;27;126306;-72
2022/10/07 09:29:50;;;;;;;10.50;2.83;;;14.80;1.00;;;15.90;66.50;100478.63;5036075;27;130034;-72
2022/10/07 09:32:20;;;;;;;13.77;3.28;;;14.50;1.00;;;15.80;67.54;100485.25;5054285;27;129481;-75
2022/10/07 09:34:51;;;;;;;12.50;2.92;;;14.50;1.00;;;15.56;66.61;100482.94;5056239;27;125371;-72
2022/10/07 09:37:22;;;;;;;11.10;2.45;;;14.40;1.00;;;15.48;67.00;100491.94;5056475;27;125711;-77
2022/10/07 09:39:53;;;;;;;14.38;2.97;;;14.20;1.00;;;15.40;67.99;100474.41;5056030;27;130411;-74
2022/10/07 09:42:33;;;;;;;10.63;2.45;;;14.20;1.00;;;15.22;67.77;100467.28;5056570;27;129427;-73
2022/10/07 09:45:06;;;;;;;10.85;2.45;;;14.20;1.00;;;15.29;67.55;100467.66;5070924;27;126021;-69
2022/10/07 09:47:40;;;;;;;11.80;2.50;;;14.20;1.00;;;15.34;65.29;100469.41;5056921;27;125560;-74
2022/10/07 09:50:35;;;;;;;13.60;2.88;;;14.40;1.00;;;15.33;67.38;100454.91;5059668;27;129957;-74
2022/10/07 09:53:05;;;;;;;11.23;2.90;;;14.60;1.00;;;15.46;66.09;100451.25;5058383;27;129322;-76
2022/10/07 09:55:40;;;;;;;10.05;2.22;;;14.50;1.00;;;15.20;66.51;100453.16;5059866;27;125036;-71
2022/10/07 09:58:20;;;;;;;9.55;2.95;;;14.20;1.00;;;15.08;65.74;100460.06;5060447;27;125769;-73
2022/10/07 10:00:51;;;;;;;10.98;2.53;;;14.30;1.00;;;15.37;66.95;100457.84;5059529;27;130097;-71
2022/10/07 10:03:20;;;;;;;10.88;2.80;;;14.60;1.00;;;15.69;64.01;100455.75;5043642;27;128698;-71
2022/10/07 10:05:57;;;;;;;11.10;2.15;;;14.80;1.00;;;15.57;63.94;100450.94;5059848;27;126569;-73
2022/10/07 10:08:28;;;;;;;;;;;14.70;1.00;;;15.54;63.92;100448.84;5059988;27;126651;-73
2022/10/07 10:11:00;;;;;;;7.88;2.42;;;14.60;1.00;;;15.77;62.01;100449.50;5059481;27;129951;-75
2022/10/07 10:13:33;;;;;;;11.23;2.50;;;14.70;1.00;;;15.76;61.85;100454.13;5059039;27;129388;-73
2022/10/07 10:16:04;;;;;;;10.77;2.70;;;14.70;1.00;;;15.97;61.61;100445.28;5059465;27;125433;-69
2022/10/07 10:18:39;;;;;;;8.13;2.08;;;14.80;1.00;;;15.99;61.74;100451.25;5044417;27;124349;-74
2022/10/07 10:21:28;;;;;;;6.57;2.45;;;14.90;1.00;;;15.69;61.97;100453.00;5059139;27;130535;-72
2022/10/07 10:23:59;;;;;;;9.10;1.90;;;14.70;1.00;;;15.71;63.39;100435.16;5041550;27;130057;-71
2022/10/07 10:26:57;;;;;;;10.85;2.42;;;14.90;1.00;;;15.83;61.87;100437.25;5059309;27;125650;-73
2022/10/07 10:29:47;;;;;;;10.85;2.70;;;14.90;1.00;;;15.96;61.67;100447.22;5059134;27;126032;-73
2022/10/07 10:32:47;;;;;;;7.15;2.17;;;15.20;1.00;;;16.08;60.71;100438.34;5058744;27;129929;-73
2022/10/07 10:35:19;;;;;;;7.05;2.28;;;14.80;1.00;;;16.06;61.71;100437.06;5059558;27;129546;-72